Time;durP1;ratioP1;P1;durP2;ratioP2;P2;SDS_P1;SDS_P2;PMS_P1;PMS_P2;Temp;Humidity;BMP_temperature;BMP_pressure;BME280_temperature;BME280_humidity;BME280_pressure;Samples;Min_cycle;Max_cycle;Signal;HPM_P1;HPM_P2
2022/06/09 00:02:19;;;;;;;3.45;2.20;;;18.70;92.30;;;;;;5104634;28;20082;-58
2022/06/09 00:05:06;;;;;;;2.67;2.08;;;18.70;92.40;;;;;;5108430;28;20087;-56
2022/06/09 00:07:52;;;;;;;2.22;1.80;;;18.50;92.50;;;;;;5117074;28;20042;-54
2022/06/09 00:10:41;;;;;;;3.20;1.98;;;18.50;92.90;;;;;;5082109;28;20118;-57
2022/06/09 00:13:26;;;;;;;2.97;2.10;;;18.40;93.30;;;;;;5109514;28;20050;-55
2022/06/09 00:16:10;;;;;;;;;;;18.30;93.70;;;;;;5116356;28;20100;-55
2022/06/09 00:18:55;;;;;;;2.95;2.10;;;18.20;94.10;;;;;;5109963;28;19919;-57
2022/06/09 00:21:39;;;;;;;2.90;2.17;;;18.10;94.40;;;;;;5121880;27;20072;-55
2022/06/09 00:24:24;;;;;;;3.38;2.28;;;18.10;94.70;;;;;;5137504;27;20492;-58
2022/06/09 00:27:08;;;;;;;3.03;2.28;;;18.10;95.00;;;;;;5117875;27;20046;-57
2022/06/09 00:29:52;;;;;;;2.90;2.25;;;18.10;95.30;;;;;;5101824;28;20400;-58
2022/06/09 00:32:36;;;;;;;3.88;2.63;;;18.00;95.50;;;;;;5081292;28;20402;-57
2022/06/09 00:35:21;;;;;;;2.88;2.28;;;18.00;95.60;;;;;;5115581;28;20066;-57
2022/06/09 00:38:05;;;;;;;3.25;2.50;;;17.90;96.00;;;;;;5114484;28;20038;-58
2022/06/09 00:40:50;;;;;;;3.47;2.20;;;17.80;96.40;;;;;;5100978;28;20082;-56
2022/06/09 00:43:34;;;;;;;4.05;2.80;;;17.80;96.60;;;;;;5102485;27;20042;-54
2022/06/09 00:46:25;;;;;;;4.13;2.45;;;17.90;96.70;;;;;;5102264;28;20039;-57
2022/06/09 00:49:21;;;;;;;2.10;1.90;;;17.90;96.50;;;;;;5115440;28;20026;-56
2022/06/09 00:52:10;;;;;;;3.08;2.10;;;18.00;96.50;;;;;;5100433;28;20034;-54
2022/06/09 00:55:03;;;;;;;3.30;1.98;;;17.90;96.50;;;;;;5110116;28;20100;-57
2022/06/09 00:57:54;;;;;;;2.63;2.15;;;17.90;96.60;;;;;;5099637;28;20098;-58
2022/06/09 01:00:47;;;;;;;3.20;2.15;;;18.10;96.50;;;;;;5104751;28;20496;-56
2022/06/09 01:03:56;;;;;;;3.03;2.10;;;18.00;96.70;;;;;;5079715;28;20031;-59
2022/06/09 01:07:06;;;;;;;3.05;2.08;;;18.00;96.90;;;;;;5115257;28;20033;-58
2022/06/09 01:09:50;;;;;;;3.20;2.17;;;17.80;97.10;;;;;;5111727;28;20401;-55
2022/06/09 01:12:42;;;;;;;;;;;17.80;97.30;;;;;;5095894;28;20043;-58
2022/06/09 01:15:55;;;;;;;4.50;2.92;;;17.80;97.50;;;;;;5110091;27;19922;-57
2022/06/09 01:19:10;;;;;;;3.45;2.35;;;17.80;97.70;;;;;;5102987;27;20038;-58
2022/06/09 01:22:09;;;;;;;2.90;2.40;;;17.70;98.20;;;;;;5128548;27;20042;-55
2022/06/09 01:25:09;;;;;;;4.05;2.20;;;17.70;98.30;;;;;;5099629;28;20510;-58
2022/06/09 01:28:12;;;;;;;3.05;2.22;;;17.70;98.20;;;;;;5109919;28;20094;-56
2022/06/09 01:31:09;;;;;;;2.50;2.10;;;17.80;98.30;;;;;;5115563;28;20038;-57
2022/06/09 01:34:05;;;;;;;3.10;2.33;;;17.70;98.40;;;;;;5082953;28;20062;-58
2022/06/09 01:36:58;;;;;;;3.42;2.55;;;17.70;98.30;;;;;;5095055;28;20074;-57
2022/06/09 01:39:53;;;;;;;2.28;1.98;;;17.70;98.20;;;;;;5095117;28;20558;-56
2022/06/09 01:42:40;;;;;;;2.45;2.10;;;17.60;98.30;;;;;;5102705;27;20033;-56
2022/06/09 01:45:37;;;;;;;2.58;2.10;;;17.60;98.50;;;;;;5114740;27;20049;-56
2022/06/09 01:48:25;;;;;;;5.50;2.13;;;17.70;98.60;;;;;;5107374;28;20046;-58
2022/06/09 01:51:13;;;;;;;2.55;2.10;;;17.70;98.50;;;;;;5115389;28;20035;-56
2022/06/09 01:54:03;;;;;;;3.47;2.25;;;17.70;98.50;;;;;;5115477;28;20398;-56
2022/06/09 01:57:21;;;;;;;4.18;2.60;;;17.60;98.70;;;;;;5097505;28;20112;-56
2022/06/09 02:00:12;;;;;;;3.28;2.30;;;17.50;99.20;;;;;;5095114;28;20093;-58
2022/06/09 02:03:13;;;;;;;4.07;2.40;;;17.60;99.10;;;;;;5094464;28;20147;-58
2022/06/09 02:05:59;;;;;;;3.50;2.97;;;17.60;99.40;;;;;;5106175;28;20445;-56
2022/06/09 02:08:44;;;;;;;3.78;2.70;;;17.60;99.00;;;;;;5115066;28;20034;-56
2022/06/09 02:11:29;;;;;;;3.75;2.20;;;17.60;99.60;;;;;;5096925;28;20684;-58
2022/06/09 02:14:15;;;;;;;3.50;2.53;;;17.60;99.50;;;;;;5106829;28;20051;-58
2022/06/09 02:17:03;;;;;;;3.63;2.40;;;17.60;99.40;;;;;;5097367;28;20043;-57
2022/06/09 02:19:50;;;;;;;2.72;2.40;;;17.60;99.80;;;;;;5109324;28;20161;-57
2022/06/09 02:22:34;;;;;;;3.42;2.40;;;17.60;99.70;;;;;;5099703;28;20035;-59
2022/06/09 02:25:19;;;;;;;3.15;2.85;;;17.50;99.70;;;;;;5093769;28;20047;-59
2022/06/09 02:28:05;;;;;;;3.50;2.60;;;17.40;99.90;;;;;;5113090;28;20043;-55
2022/06/09 02:30:49;;;;;;;3.88;2.50;;;17.40;99.90;;;;;;5113504;28;20066;-53
2022/06/09 02:33:34;;;;;;;2.85;2.38;;;17.30;99.90;;;;;;5108137;28;20422;-56
2022/06/09 02:36:18;;;;;;;3.72;2.50;;;17.20;99.90;;;;;;5110382;28;20041;-54
2022/06/09 02:39:03;;;;;;;2.80;2.13;;;17.20;99.90;;;;;;5093286;28;20075;-58
2022/06/09 02:41:48;;;;;;;3.28;2.17;;;17.30;99.90;;;;;;5107237;28;20046;-56
2022/06/09 02:44:32;;;;;;;2.72;2.42;;;17.20;99.90;;;;;;5093521;28;20039;-58
2022/06/09 02:47:16;;;;;;;4.45;2.85;;;17.00;99.90;;;;;;5107019;28;20116;-55
2022/06/09 02:50:01;;;;;;;2.58;2.38;;;17.00;99.90;;;;;;5113241;28;20055;-58
2022/06/09 02:52:45;;;;;;;4.60;2.63;;;17.00;99.90;;;;;;5114621;28;20078;-56
2022/06/09 02:55:29;;;;;;;4.20;2.60;;;16.90;99.90;;;;;;5113522;28;20053;-57
2022/06/09 02:58:14;;;;;;;3.33;2.53;;;16.90;99.90;;;;;;5113918;28;20078;-57
2022/06/09 03:00:58;;;;;;;5.47;2.72;;;17.00;99.90;;;;;;5082725;28;20030;-54
2022/06/09 03:03:43;;;;;;;4.22;2.80;;;16.90;99.90;;;;;;5093141;28;20407;-56
2022/06/09 03:06:27;;;;;;;2.83;2.40;;;17.00;99.90;;;;;;5093253;28;20039;-59
2022/06/09 03:09:11;;;;;;;3.58;2.67;;;17.00;99.90;;;;;;5094002;28;20434;-58
2022/06/09 03:11:55;;;;;;;3.75;2.45;;;17.00;99.90;;;;;;5093720;28;20082;-57
2022/06/09 03:14:39;;;;;;;3.55;2.67;;;17.00;99.90;;;;;;5090639;28;20038;-58
2022/06/09 03:17:25;;;;;;;3.08;2.42;;;17.00;99.90;;;;;;5097709;28;20086;-58
2022/06/09 03:20:15;;;;;;;4.80;2.45;;;17.00;99.90;;;;;;5098618;28;20070;-57
2022/06/09 03:22:59;;;;;;;4.57;2.50;;;16.90;99.90;;;;;;5077970;28;20533;-55
2022/06/09 03:25:46;;;;;;;6.80;3.05;;;16.90;99.90;;;;;;5078132;28;20082;-52
2022/06/09 03:28:30;;;;;;;3.75;2.83;;;16.90;99.90;;;;;;5109039;28;20174;-57
2022/06/09 03:31:14;;;;;;;3.92;3.05;;;16.80;99.90;;;;;;5098023;28;20034;-57
2022/06/09 03:33:58;;;;;;;3.47;2.78;;;16.80;99.90;;;;;;5095439;28;20043;-58
2022/06/09 03:36:43;;;;;;;7.10;2.70;;;16.80;99.90;;;;;;5097669;28;20034;-58
2022/06/09 03:39:27;;;;;;;3.00;2.70;;;16.90;99.90;;;;;;5111764;28;20038;-57
2022/06/09 03:42:11;;;;;;;3.83;2.58;;;16.90;99.90;;;;;;5086912;28;20063;-53
2022/06/09 03:44:55;;;;;;;3.80;3.00;;;16.90;99.90;;;;;;5091817;28;20402;-50
2022/06/09 03:47:39;;;;;;;2.70;2.50;;;16.80;99.90;;;;;;5097260;28;20038;-54
2022/06/09 03:50:26;;;;;;;3.35;2.70;;;16.70;99.90;;;;;;5112872;28;20225;-52
2022/06/09 03:53:11;;;;;;;4.35;2.70;;;16.80;99.90;;;;;;5092955;28;20171;-53
2022/06/09 03:55:57;;;;;;;4.40;2.90;;;16.80;99.90;;;;;;5106359;28;20043;-55
2022/06/09 03:58:42;;;;;;;3.08;2.55;;;16.80;99.90;;;;;;5113484;28;20116;-49
2022/06/09 04:01:26;;;;;;;2.50;2.30;;;16.90;99.90;;;;;;5094780;28;20039;-51
2022/06/09 04:04:11;;;;;;;3.08;2.63;;;16.90;99.90;;;;;;5092640;28;20042;-50
2022/06/09 04:06:55;;;;;;;3.40;2.95;;;16.80;99.90;;;;;;5092255;28;20039;-55
2022/06/09 04:09:39;;;;;;;4.70;3.30;;;16.80;99.90;;;;;;5079771;28;20564;-52
2022/06/09 04:12:24;;;;;;;3.43;2.93;;;16.80;99.90;;;;;;5090478;28;20047;-55
2022/06/09 04:15:09;;;;;;;4.40;2.88;;;16.80;99.90;;;;;;5093867;28;20035;-55
2022/06/09 04:17:54;;;;;;;3.38;2.65;;;16.70;99.90;;;;;;5077720;28;20036;-50
2022/06/09 04:20:39;;;;;;;3.92;2.97;;;16.80;99.90;;;;;;5108359;28;20517;-50
2022/06/09 04:23:25;;;;;;;3.15;2.85;;;16.70;99.90;;;;;;5096867;28;20090;-51
2022/06/09 04:26:15;;;;;;;4.22;3.10;;;16.70;99.90;;;;;;5099470;28;20066;-49
2022/06/09 04:28:59;;;;;;;4.60;3.03;;;16.60;99.90;;;;;;5092525;28;20727;-51
2022/06/09 04:31:43;;;;;;;4.47;3.38;;;16.60;99.90;;;;;;5094685;28;20094;-53
2022/06/09 04:34:28;;;;;;;4.30;3.50;;;16.70;99.90;;;;;;5096183;28;21651;-51
2022/06/09 04:37:12;;;;;;;5.45;3.65;;;16.60;99.90;;;;;;5095507;28;20117;-53
2022/06/09 04:39:56;;;;;;;4.37;3.80;;;16.60;99.90;;;;;;5114705;28;20042;-58
2022/06/09 04:42:43;;;;;;;6.15;3.47;;;16.50;99.90;;;;;;5104874;27;20956;-55
2022/06/09 04:45:28;;;;;;;4.72;3.83;;;16.60;99.90;;;;;;5114296;28;20035;-50
2022/06/09 04:48:13;;;;;;;6.22;4.47;;;16.50;99.90;;;;;;5108047;28;20551;-54
2022/06/09 04:50:58;;;;;;;5.18;4.18;;;16.70;99.90;;;;;;5112059;28;20043;-56
2022/06/09 04:53:43;;;;;;;6.70;4.50;;;16.70;99.90;;;;;;5103512;28;20026;-57
2022/06/09 04:56:28;;;;;;;6.63;5.03;;;16.70;99.90;;;;;;5113886;28;20144;-49
2022/06/09 04:59:12;;;;;;;6.80;5.13;;;16.70;99.90;;;;;;5106866;28;20468;-54
2022/06/09 05:01:57;;;;;;;6.32;5.18;;;16.60;99.90;;;;;;5109080;28;20126;-58
2022/06/09 05:04:42;;;;;;;5.38;4.50;;;16.80;99.90;;;;;;5099404;28;20043;-56
2022/06/09 05:07:27;;;;;;;5.35;4.65;;;16.70;99.90;;;;;;5084169;28;20051;-56
2022/06/09 05:10:12;;;;;;;6.13;4.93;;;16.60;99.90;;;;;;5084116;28;20054;-57
2022/06/09 05:12:57;;;;;;;8.07;5.22;;;16.50;99.90;;;;;;5103113;28;20437;-56
2022/06/09 05:15:49;;;;;;;5.55;4.63;;;16.50;99.90;;;;;;5075832;28;20045;-53
2022/06/09 05:18:35;;;;;;;9.55;5.45;;;16.60;99.90;;;;;;5098839;28;20056;-58
2022/06/09 05:21:19;;;;;;;7.88;4.97;;;16.80;99.90;;;;;;5101572;28;20108;-55
2022/06/09 05:24:04;;;;;;;7.68;6.18;;;17.00;99.90;;;;;;5086560;28;20063;-56
2022/06/09 05:26:49;;;;;;;7.20;5.03;;;17.00;99.90;;;;;;5103892;28;20042;-56
2022/06/09 05:29:33;;;;;;;;;;;17.10;99.90;;;;;;5119537;28;20039;-57
2022/06/09 05:32:19;;;;;;;6.13;5.00;;;17.00;99.90;;;;;;5118926;28;19923;-58
2022/06/09 05:35:08;;;;;;;6.30;5.15;;;17.10;99.90;;;;;;5113972;28;20108;-58
2022/06/09 05:47:05;;;;;;;8.57;4.82;;;17.20;99.90;;;;;;5108955;28;20500;-55
2022/06/09 05:49:54;;;;;;;6.93;5.07;;;17.10;99.90;;;;;;5118116;28;20070;-56
2022/06/09 05:52:38;;;;;;;9.18;5.00;;;17.40;99.90;;;;;;5114655;28;20074;-57
2022/06/09 05:55:22;;;;;;;7.05;5.10;;;17.40;99.90;;;;;;5119684;28;20050;-57
2022/06/09 05:58:07;;;;;;;11.27;5.07;;;17.30;99.90;;;;;;5082301;28;20047;-55
2022/06/09 06:00:52;;;;;;;7.05;5.30;;;17.30;99.90;;;;;;5092785;28;20035;-54
2022/06/09 06:03:38;;;;;;;9.07;5.50;;;17.20;99.90;;;;;;5118538;28;20056;-58
2022/06/09 06:06:35;;;;;;;8.30;5.10;;;17.30;99.90;;;;;;5104442;28;20063;-55
2022/06/09 06:09:21;;;;;;;5.53;4.80;;;17.20;99.90;;;;;;5085837;28;20035;-55
2022/06/09 06:12:07;;;;;;;10.43;5.95;;;17.20;99.90;;;;;;5104104;28;20038;-55
2022/06/09 06:14:51;;;;;;;8.88;6.00;;;17.30;99.90;;;;;;5115330;28;20043;-54
2022/06/09 06:17:36;;;;;;;7.78;5.47;;;17.30;99.90;;;;;;5097851;28;20035;-56
2022/06/09 06:20:21;;;;;;;7.82;5.13;;;17.30;99.90;;;;;;5071513;28;20494;-56
2022/06/09 06:23:06;;;;;;;12.00;5.35;;;17.60;99.90;;;;;;5117840;28;20414;-53
2022/06/09 06:25:51;;;;;;;;;;;17.70;99.90;;;;;;5110175;28;20082;-54
2022/06/09 06:28:36;;;;;;;8.80;5.55;;;17.40;99.90;;;;;;5105186;28;19954;-54
2022/06/09 06:31:20;;;;;;;8.50;6.00;;;17.40;99.90;;;;;;5109774;28;20042;-54
2022/06/09 06:34:05;;;;;;;;;;;17.50;99.90;;;;;;5108752;28;20042;-63
2022/06/09 06:36:49;;;;;;;10.07;6.47;;;17.30;99.90;;;;;;5117340;28;19915;-57
2022/06/09 06:39:34;;;;;;;;;;;17.10;99.90;;;;;;5118703;28;20105;-58
2022/06/09 06:42:19;;;;;;;9.27;6.63;;;17.40;99.90;;;;;;5110160;27;19949;-55
2022/06/09 06:45:07;;;;;;;9.25;6.75;;;17.30;99.90;;;;;;5120749;27;20062;-57
2022/06/09 06:47:56;;;;;;;9.23;6.72;;;17.30;99.90;;;;;;5112805;27;20454;-55
2022/06/09 06:50:41;;;;;;;12.75;6.70;;;17.50;99.90;;;;;;5111704;28;20038;-53
2022/06/09 06:53:26;;;;;;;10.48;6.53;;;17.60;99.90;;;;;;5126921;27;20069;-55
2022/06/09 06:56:10;;;;;;;11.07;6.80;;;17.70;99.90;;;;;;5115775;28;20093;-53
2022/06/09 06:58:54;;;;;;;9.25;6.65;;;17.70;99.90;;;;;;5117182;28;20068;-55
2022/06/09 07:01:42;;;;;;;11.23;7.30;;;17.90;99.90;;;;;;5116286;28;20046;-54
2022/06/09 07:04:29;;;;;;;13.00;8.80;;;18.20;99.70;;;;;;5103221;28;20066;-58
2022/06/09 07:07:13;;;;;;;10.05;8.55;;;18.00;99.90;;;;;;5115667;28;20038;-59
2022/06/09 07:10:03;;;;;;;13.15;9.68;;;18.10;99.70;;;;;;5118565;28;20048;-54
2022/06/09 07:12:48;;;;;;;9.80;8.13;;;18.30;99.20;;;;;;5099470;28;20090;-58
2022/06/09 07:15:32;;;;;;;11.98;8.18;;;18.30;98.90;;;;;;5111004;28;20030;-57
2022/06/09 07:18:17;;;;;;;11.98;8.10;;;18.20;99.30;;;;;;5124666;27;20038;-58
2022/06/09 07:21:03;;;;;;;9.80;7.57;;;18.50;98.90;;;;;;5114028;28;20071;-54
2022/06/09 07:23:47;;;;;;;9.43;7.40;;;18.60;98.90;;;;;;5108994;28;20050;-56
2022/06/09 07:26:31;;;;;;;11.50;6.57;;;18.70;98.20;;;;;;5111079;28;20031;-52
2022/06/09 07:29:16;;;;;;;9.60;7.32;;;18.70;98.20;;;;;;5123070;27;20091;-57
2022/06/09 07:32:01;;;;;;;9.75;6.85;;;18.80;98.10;;;;;;5136507;27;20122;-55
2022/06/09 07:34:45;;;;;;;;;;;18.90;98.30;;;;;;5129343;27;20150;-57
2022/06/09 07:37:29;;;;;;;7.97;6.68;;;19.10;97.60;;;;;;5114116;28;19915;-57
2022/06/09 07:40:14;;;;;;;7.25;6.22;;;19.20;97.20;;;;;;5115609;28;20110;-55
2022/06/09 07:42:58;;;;;;;8.60;6.43;;;19.10;97.30;;;;;;5104167;28;20045;-55
2022/06/09 07:45:43;;;;;;;8.07;6.32;;;18.90;97.30;;;;;;5133754;28;20644;-56
2022/06/09 07:48:29;;;;;;;11.57;6.50;;;18.90;97.30;;;;;;5098932;28;20042;-58
2022/06/09 07:51:13;;;;;;;10.05;6.15;;;19.10;96.80;;;;;;5120241;28;20445;-55
2022/06/09 07:53:58;;;;;;;7.47;5.93;;;19.40;96.20;;;;;;5112206;28;20096;-55
2022/06/09 07:56:43;;;;;;;8.82;5.85;;;19.30;96.00;;;;;;5110551;28;20038;-56
2022/06/09 07:59:27;;;;;;;8.57;6.18;;;19.20;96.50;;;;;;5106891;28;20041;-53
2022/06/09 08:02:12;;;;;;;7.40;6.38;;;19.20;96.50;;;;;;5121778;28;20043;-57
2022/06/09 08:04:56;;;;;;;8.73;6.50;;;19.10;95.80;;;;;;5125307;28;20069;-52
2022/06/09 08:07:41;;;;;;;9.10;6.22;;;19.30;95.50;;;;;;5123070;28;20037;-53
2022/06/09 08:10:27;;;;;;;9.18;6.07;;;19.70;95.70;;;;;;5121485;28;20054;-56
2022/06/09 08:13:13;;;;;;;8.32;5.68;;;20.00;94.80;;;;;;5124683;27;20038;-54
2022/06/09 08:15:58;;;;;;;7.53;5.95;;;20.10;94.70;;;;;;5118058;27;20033;-53
2022/06/09 08:18:42;;;;;;;12.60;6.03;;;20.00;95.10;;;;;;5111265;27;20125;-58
2022/06/09 08:21:28;;;;;;;6.45;5.78;;;19.90;95.20;;;;;;5090810;27;20030;-58
2022/06/09 08:24:12;;;;;;;13.13;6.72;;;19.90;95.10;;;;;;5097764;28;20098;-55
2022/06/09 08:26:56;;;;;;;8.50;5.50;;;19.70;95.00;;;;;;5095981;28;20090;-58
2022/06/09 08:29:41;;;;;;;7.32;5.43;;;19.80;95.10;;;;;;5113580;27;20125;-59
2022/06/09 08:32:25;;;;;;;;;;;20.00;94.50;;;;;;5128534;27;20532;-57
2022/06/09 08:35:15;;;;;;;6.93;5.45;;;20.20;94.30;;;;;;5128556;27;19933;-60
2022/06/09 08:38:02;;;;;;;7.28;5.00;;;20.50;94.20;;;;;;5110075;27;20054;-56
2022/06/09 08:41:13;;;;;;;7.55;5.40;;;20.70;93.60;;;;;;5122912;27;20066;-59
2022/06/09 08:44:23;;;;;;;7.97;5.15;;;20.80;93.10;;;;;;5127988;27;20049;-56
2022/06/09 08:47:29;;;;;;;7.80;6.03;;;21.00;93.30;;;;;;5111344;27;20144;-62
2022/06/09 08:50:54;;;;;;;9.50;5.72;;;20.70;93.90;;;;;;5106663;28;20089;-60
2022/06/09 08:53:58;;;;;;;11.27;5.80;;;20.60;93.40;;;;;;5077969;28;20046;-56
2022/06/09 08:56:45;;;;;;;11.35;6.53;;;20.40;93.70;;;;;;5101865;28;20512;-59
2022/06/09 08:59:37;;;;;;;9.40;6.68;;;20.00;94.60;;;;;;5110503;28;20583;-59
2022/06/09 09:02:27;;;;;;;10.05;6.90;;;19.90;94.60;;;;;;5090295;28;20058;-60
2022/06/09 09:05:20;;;;;;;11.52;7.03;;;19.80;94.90;;;;;;5116010;28;20038;-57
2022/06/09 09:08:06;;;;;;;9.30;7.00;;;19.80;94.70;;;;;;5121369;27;20042;-60
2022/06/09 09:10:54;;;;;;;10.02;7.60;;;19.70;94.50;;;;;;5100557;28;20039;-54
2022/06/09 09:14:11;;;;;;;8.82;7.45;;;19.70;94.70;;;;;;5100150;28;20058;-59
2022/06/09 09:17:34;;;;;;;8.65;7.43;;;19.60;94.60;;;;;;5092070;28;20137;-58
2022/06/09 09:20:40;;;;;;;10.65;7.85;;;19.50;94.40;;;;;;5109029;28;20387;-58
2022/06/09 09:23:46;;;;;;;9.60;8.23;;;19.50;94.30;;;;;;5108262;27;20549;-52
2022/06/09 09:27:02;;;;;;;13.95;7.80;;;19.60;94.30;;;;;;5111741;27;20066;-57
2022/06/09 09:30:10;;;;;;;12.85;8.52;;;19.50;94.50;;;;;;5112074;27;20035;-56
2022/06/09 09:32:56;;;;;;;14.02;8.55;;;19.40;94.40;;;;;;5112802;28;20066;-54
2022/06/09 09:35:42;;;;;;;10.63;8.05;;;19.50;94.60;;;;;;5107997;28;20043;-59
2022/06/09 09:38:34;;;;;;;13.32;9.07;;;19.40;94.80;;;;;;5117250;27;20540;-50
2022/06/09 09:41:54;;;;;;;16.23;8.63;;;19.40;94.90;;;;;;5091011;27;20777;-51
2022/06/09 09:44:39;;;;;;;14.27;10.10;;;19.50;94.50;;;;;;5081389;28;20066;-55
2022/06/09 09:47:27;;;;;;;12.43;8.57;;;19.40;94.80;;;;;;5112627;27;20038;-54
2022/06/09 09:50:49;;;;;;;12.55;8.73;;;19.50;94.60;;;;;;5093818;28;20458;-55
2022/06/09 09:53:55;;;;;;;13.80;9.13;;;19.50;94.60;;;;;;5089803;28;20038;-54
2022/06/09 09:56:39;;;;;;;11.25;8.43;;;19.60;94.70;;;;;;5086911;28;20030;-54
2022/06/09 09:59:26;;;;;;;13.32;8.43;;;19.70;94.80;;;;;;5108347;28;20043;-52
2022/06/09 10:08:43;;;;;;;11.75;8.63;;;19.90;94.10;;;;;;5104652;28;20055;-58
2022/06/09 10:14:43;;;;;;;12.07;8.15;;;19.90;93.90;;;;;;5110584;28;20391;-57
2022/06/09 10:17:57;;;;;;;8.50;7.47;;;19.80;94.00;;;;;;5114021;28;20090;-55
2022/06/09 10:20:49;;;;;;;10.75;7.85;;;19.90;93.90;;;;;;5094663;28;20093;-59
2022/06/09 10:23:51;;;;;;;12.98;8.10;;;20.00;93.60;;;;;;5100463;28;20142;-56
2022/06/09 10:26:39;;;;;;;10.50;7.78;;;20.00;93.50;;;;;;5098436;28;20042;-58
2022/06/09 10:29:30;;;;;;;11.32;8.13;;;20.10;93.70;;;;;;5102941;28;20560;-57
2022/06/09 10:32:33;;;;;;;11.90;8.50;;;19.90;94.60;;;;;;5094856;28;20031;-57
2022/06/09 10:35:47;;;;;;;12.68;8.98;;;19.70;94.40;;;;;;5092978;28;20031;-57
2022/06/09 10:38:44;;;;;;;17.38;13.77;;;19.60;95.30;;;;;;5104329;28;20082;-55
2022/06/09 10:41:40;;;;;;;13.95;10.40;;;19.60;96.20;;;;;;5106555;27;20039;-63
2022/06/09 10:44:28;;;;;;;10.48;8.63;;;19.40;95.80;;;;;;5133483;27;20042;-57
2022/06/09 10:57:15;;;;;;;11.65;9.15;;;19.20;99.30;;;;;;5103570;28;20111;-62
2022/06/09 11:00:04;;;;;;;10.80;9.63;;;19.20;99.90;;;;;;5117911;27;20388;-55
2022/06/09 11:02:54;;;;;;;12.68;9.82;;;19.20;99.90;;;;;;5134303;27;20099;-59
2022/06/09 11:05:41;;;;;;;13.02;10.38;;;19.20;99.90;;;;;;5100923;28;20043;-58
2022/06/09 11:08:53;;;;;;;11.40;10.25;;;19.20;99.90;;;;;;5112657;28;20035;-61
2022/06/09 11:11:46;;;;;;;11.38;9.48;;;19.20;99.90;;;;;;5096260;28;20035;-58
2022/06/09 11:15:07;;;;;;;11.90;9.63;;;19.20;99.90;;;;;;5102320;28;20086;-58
2022/06/09 11:18:00;;;;;;;16.00;11.40;;;19.30;99.90;;;;;;5112598;28;20046;-61
2022/06/09 11:21:03;;;;;;;12.10;10.35;;;19.30;99.90;;;;;;5077501;28;20035;-61
2022/06/09 11:24:10;;;;;;;13.27;9.80;;;19.50;99.90;;;;;;5094593;28;20086;-60
2022/06/09 11:27:11;;;;;;;11.30;9.32;;;19.50;99.60;;;;;;5108133;27;20453;-61
2022/06/09 11:29:59;;;;;;;12.82;9.73;;;19.30;99.20;;;;;;5100758;28;20022;-60
2022/06/09 11:32:59;;;;;;;12.25;8.77;;;19.10;99.90;;;;;;5076641;28;20031;-58
2022/06/09 11:35:51;;;;;;;12.20;9.55;;;18.90;99.10;;;;;;5105807;28;20395;-57
2022/06/09 11:38:51;;;;;;;9.32;8.35;;;18.60;99.90;;;;;;5076812;28;20054;-60
2022/06/09 11:42:05;;;;;;;13.45;10.75;;;18.30;99.90;;;;;;5111267;28;20505;-59
2022/06/09 11:44:53;;;;;;;15.07;10.70;;;18.10;99.90;;;;;;5092930;28;20155;-54
2022/06/09 11:47:39;;;;;;;13.43;10.95;;;18.20;99.90;;;;;;5111467;28;20038;-57
2022/06/09 11:50:28;;;;;;;14.60;11.30;;;18.10;99.90;;;;;;5104087;28;20034;-61
2022/06/09 11:53:19;;;;;;;13.20;9.95;;;18.10;99.90;;;;;;5098879;28;20123;-61
2022/06/09 12:00:19;;;;;;;11.63;9.70;;;17.90;99.90;;;;;;5093725;28;20055;-58
2022/06/09 12:03:31;;;;;;;11.75;9.73;;;18.10;99.90;;;;;;5090655;28;20042;-60
2022/06/09 12:06:38;;;;;;;10.57;9.57;;;18.20;99.90;;;;;;5118821;28;20019;-56
2022/06/09 12:09:51;;;;;;;12.02;9.38;;;18.40;99.90;;;;;;5106962;28;20025;-60
2022/06/09 12:12:42;;;;;;;11.43;9.95;;;18.70;99.90;;;;;;5116397;28;20111;-59
2022/06/09 12:15:33;;;;;;;11.88;9.63;;;18.80;99.90;;;;;;5098093;28;20059;-60
2022/06/09 12:18:18;;;;;;;11.35;10.02;;;19.00;99.90;;;;;;5105640;28;20035;-58
2022/06/09 12:21:10;;;;;;;15.05;9.57;;;19.30;99.90;;;;;;5118375;28;20506;-59
2022/06/09 12:23:55;;;;;;;10.93;9.55;;;19.50;99.10;;;;;;5105883;28;20039;-57
2022/06/09 12:26:42;;;;;;;12.38;10.32;;;19.40;99.10;;;;;;5105867;28;20500;-56
2022/06/09 12:29:43;;;;;;;10.95;9.77;;;19.50;99.50;;;;;;5118056;28;20095;-58
2022/06/09 12:32:43;;;;;;;11.05;9.95;;;19.60;98.80;;;;;;5114390;27;20086;-58
2022/06/09 12:35:31;;;;;;;11.68;9.95;;;19.50;98.70;;;;;;5098264;28;20043;-56
2022/06/09 12:38:36;;;;;;;13.30;9.93;;;19.70;98.30;;;;;;5111692;28;20046;-59
2022/06/09 12:41:31;;;;;;;11.52;10.30;;;19.70;98.10;;;;;;5118717;28;20434;-58
2022/06/09 12:44:40;;;;;;;10.48;9.38;;;19.90;98.30;;;;;;5134559;27;20045;-54
2022/06/09 12:47:25;;;;;;;11.40;10.27;;;20.00;97.70;;;;;;5123459;27;20022;-58
2022/06/09 12:50:31;;;;;;;12.95;11.15;;;20.40;97.60;;;;;;5098469;28;20249;-53
2022/06/09 12:53:45;;;;;;;10.38;9.20;;;20.80;97.10;;;;;;5109727;28;20041;-56
2022/06/09 12:56:57;;;;;;;12.27;10.35;;;21.30;96.10;;;;;;5116901;28;20090;-57
2022/06/09 12:59:42;;;;;;;10.95;9.18;;;21.60;96.20;;;;;;5093135;28;20043;-57
2022/06/09 13:02:28;;;;;;;;;;;21.60;96.10;;;;;;5097838;28;20180;-54
2022/06/09 13:05:12;;;;;;;10.98;8.60;;;21.90;95.40;;;;;;5110044;28;19915;-55
2022/06/09 13:07:58;;;;;;;14.85;9.07;;;22.00;94.60;;;;;;5112858;28;20038;-56
2022/06/09 13:10:53;;;;;;;10.25;9.20;;;21.80;94.10;;;;;;5111379;28;20139;-56
2022/06/09 13:13:41;;;;;;;11.52;8.38;;;22.00;94.20;;;;;;5100390;28;20030;-58
2022/06/09 13:16:27;;;;;;;10.90;8.18;;;22.30;94.40;;;;;;5095426;28;20086;-56
2022/06/09 13:19:15;;;;;;;10.35;8.95;;;22.40;94.20;;;;;;5094186;28;20513;-56
2022/06/09 13:22:04;;;;;;;10.35;9.25;;;22.60;94.20;;;;;;5106865;28;20046;-54
2022/06/09 13:24:49;;;;;;;11.18;8.95;;;22.80;93.90;;;;;;5085688;28;20027;-58
2022/06/09 13:27:34;;;;;;;;;;;22.90;93.60;;;;;;5102528;28;20414;-58
2022/06/09 13:30:41;;;;;;;13.63;9.07;;;22.90;92.20;;;;;;5093679;28;19927;-54
2022/06/09 13:33:46;;;;;;;10.57;8.90;;;23.20;91.50;;;;;;5093798;28;20082;-57
2022/06/09 13:36:38;;;;;;;11.68;9.07;;;23.30;90.90;;;;;;5100157;28;20066;-56
2022/06/09 13:39:28;;;;;;;9.00;7.82;;;23.40;90.30;;;;;;5114765;28;20043;-54
2022/06/09 13:42:14;;;;;;;9.07;7.47;;;23.40;90.60;;;;;;5103824;27;20035;-55
2022/06/09 13:45:02;;;;;;;8.00;6.68;;;23.60;90.10;;;;;;5134935;27;20513;-57
2022/06/09 13:48:05;;;;;;;9.35;7.72;;;23.90;90.40;;;;;;5110066;27;20066;-57
2022/06/09 13:51:19;;;;;;;12.95;7.70;;;24.10;90.40;;;;;;5113867;28;20039;-57
2022/06/09 13:54:17;;;;;;;9.20;7.63;;;23.90;88.20;;;;;;5101488;28;20038;-56
2022/06/09 13:57:01;;;;;;;9.45;7.60;;;23.60;87.50;;;;;;5114202;28;20059;-58
2022/06/09 13:59:45;;;;;;;8.90;6.82;;;23.60;87.60;;;;;;5102707;28;20460;-61
2022/06/09 14:02:46;;;;;;;7.57;6.82;;;23.50;87.50;;;;;;5114285;28;20049;-54
2022/06/09 14:05:33;;;;;;;8.32;6.53;;;23.10;88.00;;;;;;5095363;28;20050;-56
2022/06/09 14:08:18;;;;;;;10.02;7.05;;;22.70;85.20;;;;;;5114530;28;20070;-53
2022/06/09 14:11:05;;;;;;;8.32;6.95;;;22.50;85.60;;;;;;5105149;28;20038;-57
2022/06/09 14:13:53;;;;;;;8.18;6.90;;;22.30;87.50;;;;;;5109669;28;20058;-55
2022/06/09 14:16:43;;;;;;;7.65;6.43;;;22.30;87.20;;;;;;5123500;27;20046;-57
2022/06/09 14:19:28;;;;;;;10.57;6.53;;;22.60;85.80;;;;;;5124060;27;20055;-55
2022/06/09 14:22:13;;;;;;;8.82;6.10;;;22.60;85.00;;;;;;5078206;28;20039;-54
2022/06/09 14:24:57;;;;;;;8.75;6.32;;;22.80;84.30;;;;;;5109813;28;20481;-56
2022/06/09 14:27:42;;;;;;;8.52;6.43;;;22.90;84.10;;;;;;5109500;28;20141;-58
2022/06/09 14:30:26;;;;;;;7.97;6.78;;;22.60;84.30;;;;;;5109658;28;20505;-55
2022/06/09 14:33:13;;;;;;;7.63;5.68;;;22.80;83.10;;;;;;5112591;28;20088;-58
2022/06/09 14:35:58;;;;;;;6.70;5.72;;;23.30;82.70;;;;;;5092638;28;20074;-56
2022/06/09 14:38:43;;;;;;;8.15;5.95;;;23.70;81.20;;;;;;5097836;28;20062;-55
2022/06/09 14:41:28;;;;;;;6.68;5.40;;;23.80;80.30;;;;;;5090456;28;20067;-55
2022/06/09 14:44:12;;;;;;;6.20;5.57;;;23.70;79.90;;;;;;5119226;27;20074;-57
2022/06/09 14:46:57;;;;;;;10.10;5.78;;;23.40;80.80;;;;;;5097408;28;20042;-56
2022/06/09 14:49:42;;;;;;;5.78;5.15;;;23.00;80.40;;;;;;5107834;28;20050;-55
2022/06/09 14:52:26;;;;;;;5.95;5.22;;;22.50;81.30;;;;;;5124297;27;20481;-59
2022/06/09 14:55:12;;;;;;;6.07;5.13;;;22.50;83.00;;;;;;5098918;28;20502;-58
2022/06/09 14:57:59;;;;;;;6.13;4.53;;;22.50;81.60;;;;;;5084704;28;20473;-59
2022/06/09 15:00:44;;;;;;;6.25;4.97;;;22.70;81.10;;;;;;5077197;28;20059;-59
2022/06/09 15:03:29;;;;;;;6.05;4.53;;;22.90;80.60;;;;;;5091999;28;20043;-54
2022/06/09 15:06:19;;;;;;;5.63;4.70;;;22.70;81.30;;;;;;5090490;28;20601;-58
2022/06/09 15:09:05;;;;;;;7.40;5.28;;;23.00;80.60;;;;;;5082644;28;20022;-53
2022/06/09 15:11:50;;;;;;;6.18;4.65;;;23.50;79.80;;;;;;5112799;28;20034;-55
2022/06/09 15:14:34;;;;;;;7.90;4.60;;;23.80;78.90;;;;;;5110385;28;20094;-54
2022/06/09 15:17:19;;;;;;;4.90;4.22;;;23.70;79.20;;;;;;5111600;27;20096;-54